Aérodrome :
LOGIN :

S'inscrire | Disclaimer

   EN    FR    IT 

 










Légende :    VFR   VFR Marginal   IFR   IFR Intensif   IFR Très Intensif
Visi : 
Plafond : 
>= 8 km
>= 3000ft
5 à 8 km
1000 à 3000 ft
1500m à 5 km
500 à 1000 ft
800 à 1500m
200 à 500 ft
< 800m
< 200 ft
Symboles :   Orages  Brouillard  Fortes neiges  Fortes précipitations  Vent > 20 kt
SIGMETs :   Divers  Orages  Givrage  Turbulence  Onde Orograph.  Cendres Volcan.






- Altitude de l'aérodrome : 1465 ft


LSMP - Payerne

DERNIER METAR :
  • 071350Z AUTO 26007KT 9999NDV FEW046 BKN059 12/05 Q1019 RMK

METARs EXPIRÉS :
  • 071320Z AUTO 29007KT 240V320 9999NDV BKN061 12/05 Q1020 RMK
  • 071250Z AUTO 25009KT 9999NDV FEW045 SCT055 BKN065 11/05 Q1020 RMK
  • 071220Z AUTO 26011KT 9999NDV FEW031 BKN055 12/05 Q1020 RMK
  • 071150Z AUTO 24008KT 210V280 9999NDV BKN043 BKN066 11/04 Q1020 RMK
  • 071120Z AUTO 25008KT 220V300 9999NDV OVC041 11/04 Q1020 RMK

Prévision TAF périmée.



MET'MAP, la Météo Aéronautique d'un coup d'oeil ! - Copyright ORBIFLY Décembre 2007 - Disclaimer

ORBIFLY MET'MAP TEAM :

Programmation & Développement : Alexandra Zaïnal
Sur une idée originale de : Baudouin d'Aumeries
Assistance à la programmation : Marc-Olivier Méhu
Soutien technique & logistique : Manuel Goepfert

Contact : metmap@orbifly.com




SOURCES & CREDITS :

   NOAA